sensor_id;sensor_type;location;lat;lon;timestamp;P1;durP1;ratioP1;P2;durP2;ratioP2
43150;SDS011;28755;51.478;5.702;2023-05-07T00:02:06;23.50;;;11.75;;
43150;SDS011;28755;51.478;5.702;2023-05-07T00:04:32;16.65;;;12.02;;
43150;SDS011;28755;51.478;5.702;2023-05-07T00:07:01;19.05;;;11.98;;
43150;SDS011;28755;51.478;5.702;2023-05-07T00:09:27;14.05;;;11.48;;
43150;SDS011;28755;51.478;5.702;2023-05-07T00:11:53;15.55;;;11.75;;
43150;SDS011;28755;51.478;5.702;2023-05-07T00:14:18;16.65;;;11.98;;
43150;SDS011;28755;51.478;5.702;2023-05-07T00:16:44;19.92;;;12.07;;
43150;SDS011;28755;51.478;5.702;2023-05-07T00:19:09;15.00;;;11.80;;
43150;SDS011;28755;51.478;5.702;2023-05-07T00:21:35;17.75;;;12.27;;
43150;SDS011;28755;51.478;5.702;2023-05-07T00:24:00;15.73;;;12.07;;
43150;SDS011;28755;51.478;5.702;2023-05-07T00:26:26;14.38;;;11.32;;
43150;SDS011;28755;51.478;5.702;2023-05-07T00:28:51;16.05;;;12.30;;
43150;SDS011;28755;51.478;5.702;2023-05-07T00:31:17;14.93;;;12.27;;
43150;SDS011;28755;51.478;5.702;2023-05-07T00:33:42;16.80;;;11.80;;
43150;SDS011;28755;51.478;5.702;2023-05-07T00:36:08;19.17;;;12.40;;
43150;SDS011;28755;51.478;5.702;2023-05-07T00:38:34;16.65;;;12.52;;
43150;SDS011;28755;51.478;5.702;2023-05-07T00:40:59;17.70;;;12.25;;
43150;SDS011;28755;51.478;5.702;2023-05-07T00:43:25;15.45;;;12.63;;
43150;SDS011;28755;51.478;5.702;2023-05-07T00:45:50;15.35;;;13.05;;
43150;SDS011;28755;51.478;5.702;2023-05-07T00:48:16;15.20;;;12.75;;
43150;SDS011;28755;51.478;5.702;2023-05-07T00:50:42;15.45;;;12.85;;
43150;SDS011;28755;51.478;5.702;2023-05-07T00:53:09;19.08;;;13.48;;
43150;SDS011;28755;51.478;5.702;2023-05-07T00:55:35;13.80;;;12.23;;
43150;SDS011;28755;51.478;5.702;2023-05-07T00:58:01;14.40;;;12.88;;
43150;SDS011;28755;51.478;5.702;2023-05-07T01:00:26;17.63;;;13.52;;
43150;SDS011;28755;51.478;5.702;2023-05-07T01:02:52;18.15;;;13.57;;
43150;SDS011;28755;51.478;5.702;2023-05-07T01:05:18;17.80;;;14.00;;
43150;SDS011;28755;51.478;5.702;2023-05-07T01:07:46;16.90;;;13.90;;
43150;SDS011;28755;51.478;5.702;2023-05-07T01:10:12;19.83;;;15.48;;
43150;SDS011;28755;51.478;5.702;2023-05-07T01:12:38;17.80;;;15.25;;
43150;SDS011;28755;51.478;5.702;2023-05-07T01:15:05;17.88;;;15.20;;
43150;SDS011;28755;51.478;5.702;2023-05-07T01:17:35;18.33;;;14.90;;
43150;SDS011;28755;51.478;5.702;2023-05-07T01:20:03;20.75;;;15.55;;
43150;SDS011;28755;51.478;5.702;2023-05-07T01:22:39;20.00;;;15.40;;
43150;SDS011;28755;51.478;5.702;2023-05-07T01:25:06;19.83;;;15.40;;
43150;SDS011;28755;51.478;5.702;2023-05-07T01:27:33;22.77;;;16.35;;
43150;SDS011;28755;51.478;5.702;2023-05-07T01:29:59;20.52;;;15.95;;
43150;SDS011;28755;51.478;5.702;2023-05-07T01:32:28;20.10;;;15.70;;
43150;SDS011;28755;51.478;5.702;2023-05-07T01:34:58;20.95;;;15.82;;
43150;SDS011;28755;51.478;5.702;2023-05-07T01:37:25;20.40;;;15.90;;
43150;SDS011;28755;51.478;5.702;2023-05-07T01:39:52;20.33;;;15.93;;
43150;SDS011;28755;51.478;5.702;2023-05-07T01:42:18;23.38;;;16.38;;
43150;SDS011;28755;51.478;5.702;2023-05-07T01:44:44;18.52;;;15.98;;
43150;SDS011;28755;51.478;5.702;2023-05-07T01:47:10;19.92;;;17.13;;
43150;SDS011;28755;51.478;5.702;2023-05-07T01:49:37;21.95;;;17.77;;
43150;SDS011;28755;51.478;5.702;2023-05-07T01:52:03;20.55;;;17.45;;
43150;SDS011;28755;51.478;5.702;2023-05-07T01:54:29;22.25;;;18.75;;
43150;SDS011;28755;51.478;5.702;2023-05-07T01:56:58;20.50;;;18.25;;
43150;SDS011;28755;51.478;5.702;2023-05-07T01:59:24;22.60;;;19.20;;
43150;SDS011;28755;51.478;5.702;2023-05-07T02:01:50;23.85;;;18.42;;
43150;SDS011;28755;51.478;5.702;2023-05-07T02:04:16;24.08;;;18.48;;
43150;SDS011;28755;51.478;5.702;2023-05-07T02:06:42;24.13;;;18.92;;
43150;SDS011;28755;51.478;5.702;2023-05-07T02:09:07;25.00;;;19.98;;
43150;SDS011;28755;51.478;5.702;2023-05-07T02:11:33;25.23;;;21.08;;
43150;SDS011;28755;51.478;5.702;2023-05-07T02:13:59;24.80;;;19.52;;
43150;SDS011;28755;51.478;5.702;2023-05-07T02:16:25;22.70;;;19.08;;
43150;SDS011;28755;51.478;5.702;2023-05-07T02:18:50;25.50;;;20.35;;
43150;SDS011;28755;51.478;5.702;2023-05-07T02:21:16;26.40;;;21.08;;
43150;SDS011;28755;51.478;5.702;2023-05-07T02:23:41;24.27;;;19.98;;
43150;SDS011;28755;51.478;5.702;2023-05-07T02:26:07;23.92;;;19.52;;
43150;SDS011;28755;51.478;5.702;2023-05-07T02:28:33;25.20;;;20.23;;
43150;SDS011;28755;51.478;5.702;2023-05-07T02:31:02;23.77;;;21.25;;
43150;SDS011;28755;51.478;5.702;2023-05-07T02:33:28;23.35;;;20.48;;
43150;SDS011;28755;51.478;5.702;2023-05-07T02:35:53;26.98;;;19.90;;
43150;SDS011;28755;51.478;5.702;2023-05-07T02:38:19;26.50;;;22.40;;
43150;SDS011;28755;51.478;5.702;2023-05-07T02:40:45;27.70;;;22.15;;
43150;SDS011;28755;51.478;5.702;2023-05-07T02:43:10;26.80;;;21.27;;
43150;SDS011;28755;51.478;5.702;2023-05-07T02:45:36;25.80;;;22.00;;
43150;SDS011;28755;51.478;5.702;2023-05-07T02:48:02;25.65;;;21.75;;
43150;SDS011;28755;51.478;5.702;2023-05-07T02:50:28;27.77;;;21.90;;
43150;SDS011;28755;51.478;5.702;2023-05-07T02:52:54;24.67;;;21.98;;
43150;SDS011;28755;51.478;5.702;2023-05-07T02:55:20;25.33;;;21.30;;
43150;SDS011;28755;51.478;5.702;2023-05-07T02:57:46;23.70;;;21.20;;
43150;SDS011;28755;51.478;5.702;2023-05-07T03:00:12;29.67;;;22.00;;
43150;SDS011;28755;51.478;5.702;2023-05-07T03:02:44;25.45;;;21.85;;
43150;SDS011;28755;51.478;5.702;2023-05-07T03:05:10;27.02;;;22.13;;
43150;SDS011;28755;51.478;5.702;2023-05-07T03:07:37;28.40;;;22.30;;
43150;SDS011;28755;51.478;5.702;2023-05-07T03:10:03;23.98;;;21.20;;
43150;SDS011;28755;51.478;5.702;2023-05-07T03:12:30;25.23;;;21.02;;
43150;SDS011;28755;51.478;5.702;2023-05-07T03:14:56;28.02;;;22.00;;
43150;SDS011;28755;51.478;5.702;2023-05-07T03:17:22;25.70;;;21.95;;
43150;SDS011;28755;51.478;5.702;2023-05-07T03:19:47;27.60;;;22.35;;
43150;SDS011;28755;51.478;5.702;2023-05-07T03:22:13;24.73;;;21.92;;
43150;SDS011;28755;51.478;5.702;2023-05-07T03:24:39;29.40;;;23.35;;
43150;SDS011;28755;51.478;5.702;2023-05-07T03:27:04;26.08;;;22.95;;
43150;SDS011;28755;51.478;5.702;2023-05-07T03:29:30;39.33;;;24.42;;
43150;SDS011;28755;51.478;5.702;2023-05-07T03:31:55;25.13;;;22.50;;
43150;SDS011;28755;51.478;5.702;2023-05-07T03:34:21;28.88;;;24.45;;
43150;SDS011;28755;51.478;5.702;2023-05-07T03:36:50;27.95;;;24.33;;
43150;SDS011;28755;51.478;5.702;2023-05-07T03:39:16;26.98;;;23.73;;
43150;SDS011;28755;51.478;5.702;2023-05-07T03:41:41;27.70;;;24.75;;
43150;SDS011;28755;51.478;5.702;2023-05-07T03:44:07;28.63;;;25.10;;
43150;SDS011;28755;51.478;5.702;2023-05-07T03:46:33;29.60;;;25.95;;
43150;SDS011;28755;51.478;5.702;2023-05-07T03:48:59;28.50;;;25.33;;
43150;SDS011;28755;51.478;5.702;2023-05-07T03:51:25;29.75;;;25.65;;
43150;SDS011;28755;51.478;5.702;2023-05-07T03:53:50;30.83;;;26.38;;
43150;SDS011;28755;51.478;5.702;2023-05-07T03:56:18;30.48;;;26.25;;
43150;SDS011;28755;51.478;5.702;2023-05-07T03:58:44;28.48;;;25.33;;
43150;SDS011;28755;51.478;5.702;2023-05-07T04:01:09;28.92;;;25.45;;
43150;SDS011;28755;51.478;5.702;2023-05-07T04:03:35;32.45;;;25.55;;
43150;SDS011;28755;51.478;5.702;2023-05-07T04:06:01;31.48;;;25.63;;
43150;SDS011;28755;51.478;5.702;2023-05-07T04:08:27;30.15;;;26.10;;
43150;SDS011;28755;51.478;5.702;2023-05-07T04:10:56;33.83;;;26.38;;
43150;SDS011;28755;51.478;5.702;2023-05-07T04:13:21;34.28;;;27.13;;
43150;SDS011;28755;51.478;5.702;2023-05-07T04:15:47;31.95;;;25.73;;
43150;SDS011;28755;51.478;5.702;2023-05-07T04:18:14;37.60;;;26.05;;
43150;SDS011;28755;51.478;5.702;2023-05-07T04:20:40;33.50;;;27.25;;
43150;SDS011;28755;51.478;5.702;2023-05-07T04:23:06;33.80;;;26.67;;
43150;SDS011;28755;51.478;5.702;2023-05-07T04:25:32;31.55;;;25.98;;
43150;SDS011;28755;51.478;5.702;2023-05-07T04:27:58;37.08;;;26.65;;
43150;SDS011;28755;51.478;5.702;2023-05-07T04:30:23;32.75;;;26.08;;
43150;SDS011;28755;51.478;5.702;2023-05-07T04:32:49;31.67;;;26.95;;
43150;SDS011;28755;51.478;5.702;2023-05-07T04:35:14;33.00;;;27.42;;
43150;SDS011;28755;51.478;5.702;2023-05-07T04:37:40;32.22;;;25.85;;
43150;SDS011;28755;51.478;5.702;2023-05-07T04:40:06;30.98;;;26.15;;
43150;SDS011;28755;51.478;5.702;2023-05-07T04:42:32;33.25;;;26.00;;
43150;SDS011;28755;51.478;5.702;2023-05-07T04:44:57;30.98;;;24.77;;
43150;SDS011;28755;51.478;5.702;2023-05-07T04:47:23;28.17;;;24.90;;
43150;SDS011;28755;51.478;5.702;2023-05-07T04:49:49;30.58;;;24.88;;
43150;SDS011;28755;51.478;5.702;2023-05-07T04:52:14;27.15;;;24.02;;
43150;SDS011;28755;51.478;5.702;2023-05-07T04:54:40;29.67;;;23.88;;
43150;SDS011;28755;51.478;5.702;2023-05-07T04:57:06;29.10;;;22.85;;
43150;SDS011;28755;51.478;5.702;2023-05-07T04:59:32;28.95;;;23.45;;
43150;SDS011;28755;51.478;5.702;2023-05-07T05:01:58;36.53;;;23.55;;
43150;SDS011;28755;51.478;5.702;2023-05-07T05:04:23;29.50;;;24.27;;
43150;SDS011;28755;51.478;5.702;2023-05-07T05:06:49;29.17;;;23.77;;
43150;SDS011;28755;51.478;5.702;2023-05-07T05:09:14;29.65;;;22.40;;
43150;SDS011;28755;51.478;5.702;2023-05-07T05:11:40;28.88;;;22.98;;
43150;SDS011;28755;51.478;5.702;2023-05-07T05:14:06;26.33;;;20.75;;
43150;SDS011;28755;51.478;5.702;2023-05-07T05:16:32;25.40;;;22.05;;
43150;SDS011;28755;51.478;5.702;2023-05-07T05:18:57;23.98;;;19.90;;
43150;SDS011;28755;51.478;5.702;2023-05-07T05:21:23;24.58;;;20.77;;
43150;SDS011;28755;51.478;5.702;2023-05-07T05:23:49;28.00;;;20.38;;
43150;SDS011;28755;51.478;5.702;2023-05-07T05:26:15;27.48;;;21.25;;
43150;SDS011;28755;51.478;5.702;2023-05-07T05:28:40;23.95;;;20.90;;
43150;SDS011;28755;51.478;5.702;2023-05-07T05:31:06;26.48;;;21.08;;
43150;SDS011;28755;51.478;5.702;2023-05-07T05:33:31;27.00;;;20.48;;
43150;SDS011;28755;51.478;5.702;2023-05-07T05:35:57;26.42;;;20.95;;
43150;SDS011;28755;51.478;5.702;2023-05-07T05:38:22;22.73;;;19.73;;
43150;SDS011;28755;51.478;5.702;2023-05-07T05:40:48;25.27;;;19.98;;
43150;SDS011;28755;51.478;5.702;2023-05-07T05:43:14;22.58;;;20.17;;
43150;SDS011;28755;51.478;5.702;2023-05-07T05:45:40;23.15;;;20.65;;
43150;SDS011;28755;51.478;5.702;2023-05-07T05:48:06;23.35;;;20.40;;
43150;SDS011;28755;51.478;5.702;2023-05-07T05:50:33;21.98;;;18.33;;
43150;SDS011;28755;51.478;5.702;2023-05-07T05:53:00;24.63;;;19.35;;
43150;SDS011;28755;51.478;5.702;2023-05-07T05:55:26;23.02;;;18.88;;
43150;SDS011;28755;51.478;5.702;2023-05-07T05:57:52;24.13;;;19.13;;
43150;SDS011;28755;51.478;5.702;2023-05-07T06:00:17;22.58;;;18.38;;
43150;SDS011;28755;51.478;5.702;2023-05-07T06:02:43;22.13;;;17.77;;
43150;SDS011;28755;51.478;5.702;2023-05-07T06:05:09;23.85;;;19.65;;
43150;SDS011;28755;51.478;5.702;2023-05-07T06:07:34;25.77;;;18.92;;
43150;SDS011;28755;51.478;5.702;2023-05-07T06:10:00;20.98;;;17.70;;
43150;SDS011;28755;51.478;5.702;2023-05-07T06:12:26;22.17;;;18.13;;
43150;SDS011;28755;51.478;5.702;2023-05-07T06:14:51;20.83;;;18.00;;
43150;SDS011;28755;51.478;5.702;2023-05-07T06:17:17;21.48;;;17.83;;
43150;SDS011;28755;51.478;5.702;2023-05-07T06:19:42;20.73;;;16.52;;
43150;SDS011;28755;51.478;5.702;2023-05-07T06:22:08;18.58;;;16.50;;
43150;SDS011;28755;51.478;5.702;2023-05-07T06:24:34;22.27;;;16.25;;
43150;SDS011;28755;51.478;5.702;2023-05-07T06:26:59;17.00;;;15.20;;
43150;SDS011;28755;51.478;5.702;2023-05-07T06:29:25;20.15;;;14.60;;
43150;SDS011;28755;51.478;5.702;2023-05-07T06:31:54;20.35;;;16.58;;
43150;SDS011;28755;51.478;5.702;2023-05-07T06:34:19;19.45;;;15.10;;
43150;SDS011;28755;51.478;5.702;2023-05-07T06:36:45;19.50;;;15.30;;
43150;SDS011;28755;51.478;5.702;2023-05-07T06:39:10;16.75;;;11.68;;
43150;SDS011;28755;51.478;5.702;2023-05-07T06:41:36;16.95;;;14.52;;
43150;SDS011;28755;51.478;5.702;2023-05-07T06:44:02;16.88;;;13.90;;
43150;SDS011;28755;51.478;5.702;2023-05-07T06:46:28;17.65;;;13.50;;
43150;SDS011;28755;51.478;5.702;2023-05-07T06:48:54;20.23;;;14.95;;
43150;SDS011;28755;51.478;5.702;2023-05-07T06:51:19;16.15;;;14.38;;
43150;SDS011;28755;51.478;5.702;2023-05-07T06:53:45;20.92;;;14.35;;
43150;SDS011;28755;51.478;5.702;2023-05-07T06:56:10;17.30;;;13.82;;
43150;SDS011;28755;51.478;5.702;2023-05-07T06:58:36;20.65;;;14.75;;
43150;SDS011;28755;51.478;5.702;2023-05-07T07:01:02;19.40;;;14.77;;
43150;SDS011;28755;51.478;5.702;2023-05-07T07:03:28;19.35;;;14.20;;
43150;SDS011;28755;51.478;5.702;2023-05-07T07:05:54;18.08;;;14.13;;
43150;SDS011;28755;51.478;5.702;2023-05-07T07:08:19;14.95;;;13.35;;
43150;SDS011;28755;51.478;5.702;2023-05-07T07:10:48;17.42;;;13.80;;
43150;SDS011;28755;51.478;5.702;2023-05-07T07:13:14;19.70;;;15.98;;
43150;SDS011;28755;51.478;5.702;2023-05-07T07:15:39;17.27;;;14.10;;
43150;SDS011;28755;51.478;5.702;2023-05-07T07:18:05;16.67;;;13.20;;
43150;SDS011;28755;51.478;5.702;2023-05-07T07:20:31;19.50;;;13.43;;
43150;SDS011;28755;51.478;5.702;2023-05-07T07:22:57;14.68;;;12.52;;
43150;SDS011;28755;51.478;5.702;2023-05-07T07:25:23;14.68;;;12.40;;
43150;SDS011;28755;51.478;5.702;2023-05-07T07:27:49;16.17;;;11.63;;
43150;SDS011;28755;51.478;5.702;2023-05-07T07:30:14;17.63;;;11.90;;
43150;SDS011;28755;51.478;5.702;2023-05-07T07:32:40;17.27;;;12.77;;
43150;SDS011;28755;51.478;5.702;2023-05-07T07:35:06;15.50;;;11.90;;
43150;SDS011;28755;51.478;5.702;2023-05-07T07:37:32;13.90;;;11.18;;
43150;SDS011;28755;51.478;5.702;2023-05-07T07:39:58;14.00;;;11.30;;
43150;SDS011;28755;51.478;5.702;2023-05-07T07:42:23;14.48;;;10.85;;
43150;SDS011;28755;51.478;5.702;2023-05-07T07:44:49;18.65;;;11.50;;
43150;SDS011;28755;51.478;5.702;2023-05-07T07:47:15;15.25;;;11.60;;
43150;SDS011;28755;51.478;5.702;2023-05-07T07:49:40;16.88;;;12.18;;
43150;SDS011;28755;51.478;5.702;2023-05-07T07:52:06;14.90;;;12.05;;
43150;SDS011;28755;51.478;5.702;2023-05-07T07:54:31;12.75;;;11.38;;
43150;SDS011;28755;51.478;5.702;2023-05-07T07:56:57;15.68;;;10.88;;
43150;SDS011;28755;51.478;5.702;2023-05-07T07:59:23;13.02;;;11.40;;
43150;SDS011;28755;51.478;5.702;2023-05-07T08:01:48;13.30;;;11.38;;
43150;SDS011;28755;51.478;5.702;2023-05-07T08:04:15;16.35;;;11.27;;
43150;SDS011;28755;51.478;5.702;2023-05-07T08:06:40;13.68;;;10.82;;
43150;SDS011;28755;51.478;5.702;2023-05-07T08:09:07;19.33;;;10.95;;
43150;SDS011;28755;51.478;5.702;2023-05-07T08:11:33;15.18;;;10.95;;
43150;SDS011;28755;51.478;5.702;2023-05-07T08:13:59;18.33;;;11.45;;
43150;SDS011;28755;51.478;5.702;2023-05-07T08:16:24;14.35;;;10.55;;
43150;SDS011;28755;51.478;5.702;2023-05-07T08:18:50;14.45;;;11.38;;
43150;SDS011;28755;51.478;5.702;2023-05-07T08:21:15;13.85;;;10.73;;
43150;SDS011;28755;51.478;5.702;2023-05-07T08:23:41;13.68;;;10.63;;
43150;SDS011;28755;51.478;5.702;2023-05-07T08:26:07;15.13;;;11.23;;
43150;SDS011;28755;51.478;5.702;2023-05-07T08:28:33;13.98;;;10.80;;
43150;SDS011;28755;51.478;5.702;2023-05-07T08:30:59;15.45;;;11.15;;
43150;SDS011;28755;51.478;5.702;2023-05-07T08:33:27;19.38;;;12.15;;
43150;SDS011;28755;51.478;5.702;2023-05-07T08:35:52;15.38;;;11.55;;
43150;SDS011;28755;51.478;5.702;2023-05-07T08:38:18;17.38;;;13.02;;
43150;SDS011;28755;51.478;5.702;2023-05-07T08:40:43;17.17;;;11.98;;
43150;SDS011;28755;51.478;5.702;2023-05-07T08:43:10;18.98;;;12.82;;
43150;SDS011;28755;51.478;5.702;2023-05-07T08:45:39;17.33;;;11.98;;
43150;SDS011;28755;51.478;5.702;2023-05-07T08:48:08;14.68;;;12.07;;
43150;SDS011;28755;51.478;5.702;2023-05-07T08:50:39;13.52;;;10.52;;
43150;SDS011;28755;51.478;5.702;2023-05-07T08:53:04;13.32;;;11.38;;
43150;SDS011;28755;51.478;5.702;2023-05-07T08:55:30;13.07;;;10.77;;
43150;SDS011;28755;51.478;5.702;2023-05-07T08:57:56;12.07;;;10.75;;
43150;SDS011;28755;51.478;5.702;2023-05-07T09:00:22;18.10;;;11.15;;
43150;SDS011;28755;51.478;5.702;2023-05-07T09:02:47;16.20;;;10.77;;
43150;SDS011;28755;51.478;5.702;2023-05-07T09:05:13;12.68;;;10.48;;
43150;SDS011;28755;51.478;5.702;2023-05-07T09:07:39;13.43;;;10.50;;
43150;SDS011;28755;51.478;5.702;2023-05-07T09:10:05;12.43;;;9.52;;
43150;SDS011;28755;51.478;5.702;2023-05-07T09:12:31;11.27;;;9.73;;
43150;SDS011;28755;51.478;5.702;2023-05-07T09:14:57;14.40;;;10.48;;
43150;SDS011;28755;51.478;5.702;2023-05-07T09:17:24;12.48;;;10.52;;
43150;SDS011;28755;51.478;5.702;2023-05-07T09:19:49;16.10;;;10.88;;
43150;SDS011;28755;51.478;5.702;2023-05-07T09:22:15;18.88;;;10.07;;
43150;SDS011;28755;51.478;5.702;2023-05-07T09:24:41;13.43;;;10.35;;
43150;SDS011;28755;51.478;5.702;2023-05-07T09:27:13;12.60;;;10.35;;
43150;SDS011;28755;51.478;5.702;2023-05-07T09:29:39;11.85;;;10.65;;
43150;SDS011;28755;51.478;5.702;2023-05-07T09:32:05;16.90;;;11.23;;
43150;SDS011;28755;51.478;5.702;2023-05-07T09:34:31;15.63;;;11.25;;
43150;SDS011;28755;51.478;5.702;2023-05-07T09:37:04;14.82;;;10.93;;
43150;SDS011;28755;51.478;5.702;2023-05-07T09:39:43;12.82;;;10.07;;
43150;SDS011;28755;51.478;5.702;2023-05-07T09:42:09;17.60;;;10.23;;
43150;SDS011;28755;51.478;5.702;2023-05-07T09:44:36;14.40;;;9.95;;
43150;SDS011;28755;51.478;5.702;2023-05-07T09:47:04;11.75;;;8.68;;
43150;SDS011;28755;51.478;5.702;2023-05-07T09:49:32;13.50;;;8.88;;
43150;SDS011;28755;51.478;5.702;2023-05-07T09:52:00;14.65;;;9.15;;
43150;SDS011;28755;51.478;5.702;2023-05-07T09:54:27;11.77;;;9.02;;
43150;SDS011;28755;51.478;5.702;2023-05-07T09:56:54;11.45;;;8.30;;
43150;SDS011;28755;51.478;5.702;2023-05-07T09:59:20;20.30;;;9.55;;
43150;SDS011;28755;51.478;5.702;2023-05-07T10:01:47;10.65;;;8.82;;
43150;SDS011;28755;51.478;5.702;2023-05-07T10:04:14;13.55;;;8.88;;
43150;SDS011;28755;51.478;5.702;2023-05-07T10:06:40;11.27;;;8.18;;
43150;SDS011;28755;51.478;5.702;2023-05-07T10:09:06;11.48;;;8.50;;
43150;SDS011;28755;51.478;5.702;2023-05-07T10:11:32;10.95;;;8.65;;
43150;SDS011;28755;51.478;5.702;2023-05-07T10:13:59;13.35;;;9.35;;
43150;SDS011;28755;51.478;5.702;2023-05-07T10:16:27;11.90;;;8.10;;
43150;SDS011;28755;51.478;5.702;2023-05-07T10:18:57;9.70;;;7.50;;
43150;SDS011;28755;51.478;5.702;2023-05-07T10:21:24;11.75;;;7.78;;
43150;SDS011;28755;51.478;5.702;2023-05-07T10:23:58;8.38;;;6.60;;
43150;SDS011;28755;51.478;5.702;2023-05-07T10:26:31;9.05;;;6.05;;
43150;SDS011;28755;51.478;5.702;2023-05-07T10:28:59;8.52;;;6.43;;
43150;SDS011;28755;51.478;5.702;2023-05-07T10:34:23;10.48;;;5.72;;
43150;SDS011;28755;51.478;5.702;2023-05-07T10:36:52;7.75;;;4.13;;
43150;SDS011;28755;51.478;5.702;2023-05-07T10:39:20;8.25;;;5.80;;
43150;SDS011;28755;51.478;5.702;2023-05-07T10:41:46;7.80;;;5.10;;
43150;SDS011;28755;51.478;5.702;2023-05-07T10:44:24;14.05;;;6.15;;
43150;SDS011;28755;51.478;5.702;2023-05-07T10:47:06;9.43;;;4.85;;
43150;SDS011;28755;51.478;5.702;2023-05-07T10:49:36;6.63;;;4.47;;
43150;SDS011;28755;51.478;5.702;2023-05-07T10:52:17;7.90;;;5.20;;
43150;SDS011;28755;51.478;5.702;2023-05-07T10:54:45;7.72;;;5.20;;
43150;SDS011;28755;51.478;5.702;2023-05-07T11:00:00;8.30;;;4.30;;
43150;SDS011;28755;51.478;5.702;2023-05-07T11:05:27;7.35;;;4.50;;
43150;SDS011;28755;51.478;5.702;2023-05-07T11:13:16;8.07;;;4.60;;
43150;SDS011;28755;51.478;5.702;2023-05-07T11:15:46;8.77;;;4.40;;
43150;SDS011;28755;51.478;5.702;2023-05-07T11:18:13;7.85;;;4.68;;
43150;SDS011;28755;51.478;5.702;2023-05-07T11:20:50;5.97;;;4.38;;
43150;SDS011;28755;51.478;5.702;2023-05-07T11:26:13;7.30;;;4.63;;
43150;SDS011;28755;51.478;5.702;2023-05-07T11:28:41;8.82;;;5.50;;
43150;SDS011;28755;51.478;5.702;2023-05-07T11:31:08;9.73;;;5.10;;
43150;SDS011;28755;51.478;5.702;2023-05-07T11:33:34;7.90;;;5.25;;
43150;SDS011;28755;51.478;5.702;2023-05-07T11:36:03;7.88;;;4.93;;
43150;SDS011;28755;51.478;5.702;2023-05-07T11:38:30;8.40;;;4.47;;
43150;SDS011;28755;51.478;5.702;2023-05-07T11:40:59;8.45;;;4.68;;
43150;SDS011;28755;51.478;5.702;2023-05-07T11:43:29;8.13;;;4.47;;
43150;SDS011;28755;51.478;5.702;2023-05-07T11:46:04;9.52;;;4.40;;
43150;SDS011;28755;51.478;5.702;2023-05-07T11:48:33;7.47;;;3.97;;
43150;SDS011;28755;51.478;5.702;2023-05-07T11:51:05;7.57;;;4.00;;
43150;SDS011;28755;51.478;5.702;2023-05-07T11:53:38;6.18;;;4.30;;
43150;SDS011;28755;51.478;5.702;2023-05-07T11:56:11;8.02;;;4.13;;
43150;SDS011;28755;51.478;5.702;2023-05-07T11:58:39;6.88;;;4.07;;
43150;SDS011;28755;51.478;5.702;2023-05-07T12:01:07;9.43;;;4.05;;
43150;SDS011;28755;51.478;5.702;2023-05-07T12:03:34;5.95;;;3.53;;
43150;SDS011;28755;51.478;5.702;2023-05-07T12:06:02;10.48;;;3.53;;
43150;SDS011;28755;51.478;5.702;2023-05-07T12:08:27;10.07;;;3.60;;
43150;SDS011;28755;51.478;5.702;2023-05-07T12:10:54;6.57;;;3.00;;
43150;SDS011;28755;51.478;5.702;2023-05-07T12:13:21;6.55;;;3.60;;
43150;SDS011;28755;51.478;5.702;2023-05-07T12:15:51;7.90;;;5.35;;
43150;SDS011;28755;51.478;5.702;2023-05-07T12:18:17;7.93;;;5.05;;
43150;SDS011;28755;51.478;5.702;2023-05-07T12:20:43;12.65;;;4.43;;
43150;SDS011;28755;51.478;5.702;2023-05-07T12:23:10;7.03;;;3.67;;
43150;SDS011;28755;51.478;5.702;2023-05-07T12:25:36;9.02;;;4.10;;
43150;SDS011;28755;51.478;5.702;2023-05-07T12:28:12;8.90;;;3.60;;
43150;SDS011;28755;51.478;5.702;2023-05-07T12:30:40;6.80;;;3.35;;
43150;SDS011;28755;51.478;5.702;2023-05-07T12:33:06;8.52;;;3.30;;
43150;SDS011;28755;51.478;5.702;2023-05-07T12:35:37;6.88;;;3.30;;
43150;SDS011;28755;51.478;5.702;2023-05-07T12:38:07;5.85;;;3.38;;
43150;SDS011;28755;51.478;5.702;2023-05-07T12:40:39;7.95;;;3.53;;
43150;SDS011;28755;51.478;5.702;2023-05-07T12:43:05;8.32;;;4.35;;
43150;SDS011;28755;51.478;5.702;2023-05-07T12:45:30;8.30;;;3.80;;
43150;SDS011;28755;51.478;5.702;2023-05-07T12:47:57;8.65;;;3.60;;
43150;SDS011;28755;51.478;5.702;2023-05-07T12:50:30;11.02;;;3.40;;
43150;SDS011;28755;51.478;5.702;2023-05-07T12:55:22;5.43;;;3.47;;
43150;SDS011;28755;51.478;5.702;2023-05-07T12:57:48;9.50;;;4.60;;
43150;SDS011;28755;51.478;5.702;2023-05-07T13:00:15;7.40;;;4.18;;
43150;SDS011;28755;51.478;5.702;2023-05-07T13:02:42;8.95;;;4.38;;
43150;SDS011;28755;51.478;5.702;2023-05-07T13:05:09;9.02;;;4.60;;
43150;SDS011;28755;51.478;5.702;2023-05-07T13:07:35;6.75;;;2.40;;
43150;SDS011;28755;51.478;5.702;2023-05-07T13:10:02;5.88;;;2.65;;
43150;SDS011;28755;51.478;5.702;2023-05-07T13:12:28;10.30;;;2.40;;
43150;SDS011;28755;51.478;5.702;2023-05-07T13:14:53;7.88;;;2.60;;
43150;SDS011;28755;51.478;5.702;2023-05-07T13:17:19;5.43;;;2.63;;
43150;SDS011;28755;51.478;5.702;2023-05-07T13:19:44;7.05;;;3.15;;
43150;SDS011;28755;51.478;5.702;2023-05-07T13:22:10;6.10;;;2.72;;
43150;SDS011;28755;51.478;5.702;2023-05-07T13:24:36;6.47;;;3.88;;
43150;SDS011;28755;51.478;5.702;2023-05-07T13:27:01;7.60;;;2.72;;
43150;SDS011;28755;51.478;5.702;2023-05-07T13:29:27;7.95;;;2.92;;
43150;SDS011;28755;51.478;5.702;2023-05-07T13:31:56;5.82;;;2.45;;
43150;SDS011;28755;51.478;5.702;2023-05-07T13:34:22;6.47;;;2.95;;
43150;SDS011;28755;51.478;5.702;2023-05-07T13:36:47;6.43;;;2.63;;
43150;SDS011;28755;51.478;5.702;2023-05-07T13:39:13;7.18;;;2.97;;
43150;SDS011;28755;51.478;5.702;2023-05-07T13:41:39;8.32;;;3.08;;
43150;SDS011;28755;51.478;5.702;2023-05-07T13:44:04;6.45;;;3.55;;
43150;SDS011;28755;51.478;5.702;2023-05-07T13:46:30;7.88;;;4.10;;
43150;SDS011;28755;51.478;5.702;2023-05-07T13:48:56;6.30;;;3.58;;
43150;SDS011;28755;51.478;5.702;2023-05-07T13:51:21;8.43;;;3.33;;
43150;SDS011;28755;51.478;5.702;2023-05-07T13:53:47;8.20;;;4.30;;
43150;SDS011;28755;51.478;5.702;2023-05-07T13:56:13;8.35;;;4.20;;
43150;SDS011;28755;51.478;5.702;2023-05-07T13:58:39;9.73;;;4.75;;
43150;SDS011;28755;51.478;5.702;2023-05-07T14:01:05;6.50;;;3.88;;
43150;SDS011;28755;51.478;5.702;2023-05-07T14:03:31;7.55;;;3.95;;
43150;SDS011;28755;51.478;5.702;2023-05-07T14:05:58;10.45;;;4.88;;
43150;SDS011;28755;51.478;5.702;2023-05-07T14:08:25;13.60;;;6.20;;
43150;SDS011;28755;51.478;5.702;2023-05-07T14:10:50;8.45;;;4.78;;
43150;SDS011;28755;51.478;5.702;2023-05-07T14:13:16;15.73;;;7.55;;
43150;SDS011;28755;51.478;5.702;2023-05-07T14:15:42;12.52;;;5.43;;
43150;SDS011;28755;51.478;5.702;2023-05-07T14:18:11;11.45;;;5.03;;
43150;SDS011;28755;51.478;5.702;2023-05-07T14:20:37;9.73;;;5.03;;
43150;SDS011;28755;51.478;5.702;2023-05-07T14:23:03;7.95;;;4.10;;
43150;SDS011;28755;51.478;5.702;2023-05-07T14:25:28;6.63;;;3.80;;
43150;SDS011;28755;51.478;5.702;2023-05-07T14:27:54;9.15;;;3.85;;
43150;SDS011;28755;51.478;5.702;2023-05-07T14:30:19;12.32;;;5.38;;
43150;SDS011;28755;51.478;5.702;2023-05-07T14:32:47;7.95;;;3.78;;
43150;SDS011;28755;51.478;5.702;2023-05-07T14:35:12;9.82;;;4.15;;
43150;SDS011;28755;51.478;5.702;2023-05-07T14:37:38;6.20;;;3.80;;
43150;SDS011;28755;51.478;5.702;2023-05-07T14:40:03;9.52;;;3.92;;
43150;SDS011;28755;51.478;5.702;2023-05-07T14:42:30;4.15;;;3.03;;
43150;SDS011;28755;51.478;5.702;2023-05-07T14:44:55;4.80;;;3.42;;